sensor_id;sensor_type;location;lat;lon;timestamp;temperature;humidity
11894;DHT22;6006;49.696;8.662;2022-12-20T00:02:01;1.80;99.90
11894;DHT22;6006;49.696;8.662;2022-12-20T00:04:28;1.80;99.90
11894;DHT22;6006;49.696;8.662;2022-12-20T00:06:55;1.90;99.90
11894;DHT22;6006;49.696;8.662;2022-12-20T00:09:22;1.90;99.90
11894;DHT22;6006;49.696;8.662;2022-12-20T00:11:50;1.90;99.90
11894;DHT22;6006;49.696;8.662;2022-12-20T00:14:17;1.80;99.90
11894;DHT22;6006;49.696;8.662;2022-12-20T00:16:44;1.80;99.90
11894;DHT22;6006;49.696;8.662;2022-12-20T00:19:13;1.90;99.90
11894;DHT22;6006;49.696;8.662;2022-12-20T00:21:40;1.90;99.90
11894;DHT22;6006;49.696;8.662;2022-12-20T00:24:07;1.90;99.90
11894;DHT22;6006;49.696;8.662;2022-12-20T00:26:34;1.80;99.90
11894;DHT22;6006;49.696;8.662;2022-12-20T00:29:04;1.80;99.90
11894;DHT22;6006;49.696;8.662;2022-12-20T00:31:31;1.80;99.90
11894;DHT22;6006;49.696;8.662;2022-12-20T00:33:59;1.80;99.90
11894;DHT22;6006;49.696;8.662;2022-12-20T00:36:29;1.80;99.90
11894;DHT22;6006;49.696;8.662;2022-12-20T00:38:57;1.80;99.90
11894;DHT22;6006;49.696;8.662;2022-12-20T00:41:26;1.80;99.90
11894;DHT22;6006;49.696;8.662;2022-12-20T00:43:54;1.80;99.90
11894;DHT22;6006;49.696;8.662;2022-12-20T00:46:22;1.80;99.90
11894;DHT22;6006;49.696;8.662;2022-12-20T00:48:49;1.80;99.90
11894;DHT22;6006;49.696;8.662;2022-12-20T00:51:18;1.80;99.90
11894;DHT22;6006;49.696;8.662;2022-12-20T00:53:47;1.80;99.90
11894;DHT22;6006;49.696;8.662;2022-12-20T00:56:14;1.80;99.90
11894;DHT22;6006;49.696;8.662;2022-12-20T00:58:42;1.80;99.90
11894;DHT22;6006;49.696;8.662;2022-12-20T01:01:16;1.80;99.90
11894;DHT22;6006;49.696;8.662;2022-12-20T01:03:43;1.80;99.90
11894;DHT22;6006;49.696;8.662;2022-12-20T01:06:10;1.80;99.90
11894;DHT22;6006;49.696;8.662;2022-12-20T01:08:37;1.80;99.90
11894;DHT22;6006;49.696;8.662;2022-12-20T01:11:08;1.80;99.90
11894;DHT22;6006;49.696;8.662;2022-12-20T01:13:39;1.70;99.90
11894;DHT22;6006;49.696;8.662;2022-12-20T01:16:07;1.60;99.90
11894;DHT22;6006;49.696;8.662;2022-12-20T01:18:34;1.60;99.90
11894;DHT22;6006;49.696;8.662;2022-12-20T01:21:03;1.50;99.90
11894;DHT22;6006;49.696;8.662;2022-12-20T01:23:30;1.50;99.90
11894;DHT22;6006;49.696;8.662;2022-12-20T01:25:58;1.60;99.90
11894;DHT22;6006;49.696;8.662;2022-12-20T01:28:27;1.60;99.90
11894;DHT22;6006;49.696;8.662;2022-12-20T01:30:54;1.70;99.90
11894;DHT22;6006;49.696;8.662;2022-12-20T01:33:21;1.70;99.90
11894;DHT22;6006;49.696;8.662;2022-12-20T01:35:56;1.70;99.90
11894;DHT22;6006;49.696;8.662;2022-12-20T01:38:23;1.70;99.90
11894;DHT22;6006;49.696;8.662;2022-12-20T01:40:51;1.70;99.90
11894;DHT22;6006;49.696;8.662;2022-12-20T01:43:19;1.80;99.90
11894;DHT22;6006;49.696;8.662;2022-12-20T01:45:47;1.70;99.90
11894;DHT22;6006;49.696;8.662;2022-12-20T01:48:18;1.70;99.90
11894;DHT22;6006;49.696;8.662;2022-12-20T01:50:47;1.60;99.90
11894;DHT22;6006;49.696;8.662;2022-12-20T01:53:17;1.60;99.90
11894;DHT22;6006;49.696;8.662;2022-12-20T01:55:45;1.60;99.90
11894;DHT22;6006;49.696;8.662;2022-12-20T01:58:13;1.70;99.90
11894;DHT22;6006;49.696;8.662;2022-12-20T02:00:42;1.70;99.90
11894;DHT22;6006;49.696;8.662;2022-12-20T02:03:12;1.70;99.90
11894;DHT22;6006;49.696;8.662;2022-12-20T02:05:42;1.70;99.90
11894;DHT22;6006;49.696;8.662;2022-12-20T02:08:10;1.70;99.90
11894;DHT22;6006;49.696;8.662;2022-12-20T02:10:51;1.80;99.90
11894;DHT22;6006;49.696;8.662;2022-12-20T02:13:29;1.90;99.90
11894;DHT22;6006;49.696;8.662;2022-12-20T02:16:02;1.90;99.90
11894;DHT22;6006;49.696;8.662;2022-12-20T02:18:35;1.90;99.90
11894;DHT22;6006;49.696;8.662;2022-12-20T02:21:13;1.90;99.90
11894;DHT22;6006;49.696;8.662;2022-12-20T02:26:56;1.90;99.90
11894;DHT22;6006;49.696;8.662;2022-12-20T02:29:33;2.10;99.90
11894;DHT22;6006;49.696;8.662;2022-12-20T02:32:07;2.10;99.90
11894;DHT22;6006;49.696;8.662;2022-12-20T02:34:36;2.20;99.90
11894;DHT22;6006;49.696;8.662;2022-12-20T02:37:03;2.10;99.90
11894;DHT22;6006;49.696;8.662;2022-12-20T02:39:31;2.00;99.90
11894;DHT22;6006;49.696;8.662;2022-12-20T02:42:03;2.00;99.90
11894;DHT22;6006;49.696;8.662;2022-12-20T02:44:32;2.00;99.90
11894;DHT22;6006;49.696;8.662;2022-12-20T02:47:24;2.10;99.90
11894;DHT22;6006;49.696;8.662;2022-12-20T02:49:53;2.30;99.90
11894;DHT22;6006;49.696;8.662;2022-12-20T02:52:23;2.30;99.90
11894;DHT22;6006;49.696;8.662;2022-12-20T02:54:52;2.20;99.90
11894;DHT22;6006;49.696;8.662;2022-12-20T02:57:24;2.20;99.90
11894;DHT22;6006;49.696;8.662;2022-12-20T02:59:59;2.20;99.90
11894;DHT22;6006;49.696;8.662;2022-12-20T03:02:29;2.20;99.90
11894;DHT22;6006;49.696;8.662;2022-12-20T03:05:20;2.10;99.90
11894;DHT22;6006;49.696;8.662;2022-12-20T03:07:48;2.10;99.90
11894;DHT22;6006;49.696;8.662;2022-12-20T03:10:15;2.30;99.90
11894;DHT22;6006;49.696;8.662;2022-12-20T03:12:43;2.30;99.90
11894;DHT22;6006;49.696;8.662;2022-12-20T03:15:10;2.20;99.90
11894;DHT22;6006;49.696;8.662;2022-12-20T03:17:38;2.20;99.90
11894;DHT22;6006;49.696;8.662;2022-12-20T03:20:06;2.20;99.90
11894;DHT22;6006;49.696;8.662;2022-12-20T03:22:36;2.30;99.90
11894;DHT22;6006;49.696;8.662;2022-12-20T03:25:04;2.30;99.90
11894;DHT22;6006;49.696;8.662;2022-12-20T03:27:32;2.40;99.90
11894;DHT22;6006;49.696;8.662;2022-12-20T03:29:59;2.40;99.90
11894;DHT22;6006;49.696;8.662;2022-12-20T03:32:26;2.30;99.90
11894;DHT22;6006;49.696;8.662;2022-12-20T03:34:54;2.30;99.90
11894;DHT22;6006;49.696;8.662;2022-12-20T03:37:21;2.30;99.90
11894;DHT22;6006;49.696;8.662;2022-12-20T03:39:48;2.20;99.90
11894;DHT22;6006;49.696;8.662;2022-12-20T03:42:15;2.20;99.90
11894;DHT22;6006;49.696;8.662;2022-12-20T03:44:43;2.20;99.90
11894;DHT22;6006;49.696;8.662;2022-12-20T03:47:10;2.10;99.90
11894;DHT22;6006;49.696;8.662;2022-12-20T03:49:37;2.20;99.90
11894;DHT22;6006;49.696;8.662;2022-12-20T03:52:05;2.20;99.90
11894;DHT22;6006;49.696;8.662;2022-12-20T03:54:32;2.20;99.90
11894;DHT22;6006;49.696;8.662;2022-12-20T03:56:59;2.20;99.90
11894;DHT22;6006;49.696;8.662;2022-12-20T03:59:26;2.20;99.90
11894;DHT22;6006;49.696;8.662;2022-12-20T04:01:53;2.30;99.90
11894;DHT22;6006;49.696;8.662;2022-12-20T04:04:20;2.30;99.90
11894;DHT22;6006;49.696;8.662;2022-12-20T04:06:49;2.30;99.90
11894;DHT22;6006;49.696;8.662;2022-12-20T04:09:18;2.30;99.90
11894;DHT22;6006;49.696;8.662;2022-12-20T04:11:44;2.30;99.90
11894;DHT22;6006;49.696;8.662;2022-12-20T04:14:12;2.30;99.90
11894;DHT22;6006;49.696;8.662;2022-12-20T04:16:38;2.30;99.90
11894;DHT22;6006;49.696;8.662;2022-12-20T04:19:06;2.30;99.90
11894;DHT22;6006;49.696;8.662;2022-12-20T04:21:34;2.40;99.90
11894;DHT22;6006;49.696;8.662;2022-12-20T04:24:02;2.40;99.90
11894;DHT22;6006;49.696;8.662;2022-12-20T04:26:31;2.40;99.90
11894;DHT22;6006;49.696;8.662;2022-12-20T04:28:58;2.40;99.90
11894;DHT22;6006;49.696;8.662;2022-12-20T04:31:25;2.40;99.90
11894;DHT22;6006;49.696;8.662;2022-12-20T04:33:52;2.40;99.90
11894;DHT22;6006;49.696;8.662;2022-12-20T04:36:19;2.40;99.90
11894;DHT22;6006;49.696;8.662;2022-12-20T04:38:46;2.40;99.90
11894;DHT22;6006;49.696;8.662;2022-12-20T04:41:13;2.40;99.90
11894;DHT22;6006;49.696;8.662;2022-12-20T04:43:50;2.40;99.90
11894;DHT22;6006;49.696;8.662;2022-12-20T04:46:17;2.50;99.90
11894;DHT22;6006;49.696;8.662;2022-12-20T04:48:44;2.40;99.90
11894;DHT22;6006;49.696;8.662;2022-12-20T04:51:11;2.50;99.90
11894;DHT22;6006;49.696;8.662;2022-12-20T04:53:38;2.40;99.90
11894;DHT22;6006;49.696;8.662;2022-12-20T04:56:18;2.40;99.90
11894;DHT22;6006;49.696;8.662;2022-12-20T04:58:46;2.40;99.90
11894;DHT22;6006;49.696;8.662;2022-12-20T05:01:15;2.40;99.90
11894;DHT22;6006;49.696;8.662;2022-12-20T05:03:43;2.50;99.90
11894;DHT22;6006;49.696;8.662;2022-12-20T05:06:10;2.50;99.90
11894;DHT22;6006;49.696;8.662;2022-12-20T05:08:38;2.40;99.90
11894;DHT22;6006;49.696;8.662;2022-12-20T05:11:05;2.40;99.90
11894;DHT22;6006;49.696;8.662;2022-12-20T05:13:33;2.50;99.90
11894;DHT22;6006;49.696;8.662;2022-12-20T05:16:00;2.50;99.90
11894;DHT22;6006;49.696;8.662;2022-12-20T05:18:28;2.50;99.90
11894;DHT22;6006;49.696;8.662;2022-12-20T05:20:56;2.50;99.90
11894;DHT22;6006;49.696;8.662;2022-12-20T05:23:41;2.60;99.90
11894;DHT22;6006;49.696;8.662;2022-12-20T05:26:29;2.60;99.90
11894;DHT22;6006;49.696;8.662;2022-12-20T05:28:56;2.60;99.90
11894;DHT22;6006;49.696;8.662;2022-12-20T05:31:24;2.60;99.90
11894;DHT22;6006;49.696;8.662;2022-12-20T05:33:53;2.60;99.90
11894;DHT22;6006;49.696;8.662;2022-12-20T05:36:20;2.60;99.90
11894;DHT22;6006;49.696;8.662;2022-12-20T05:38:47;2.60;99.90
11894;DHT22;6006;49.696;8.662;2022-12-20T05:41:14;2.60;99.90
11894;DHT22;6006;49.696;8.662;2022-12-20T05:43:41;2.60;99.90
11894;DHT22;6006;49.696;8.662;2022-12-20T05:46:09;2.60;99.90
11894;DHT22;6006;49.696;8.662;2022-12-20T05:48:36;2.60;99.90
11894;DHT22;6006;49.696;8.662;2022-12-20T05:51:04;2.60;99.90
11894;DHT22;6006;49.696;8.662;2022-12-20T05:53:31;2.60;99.90
11894;DHT22;6006;49.696;8.662;2022-12-20T05:55:59;2.60;99.90
11894;DHT22;6006;49.696;8.662;2022-12-20T05:58:27;2.60;99.90
11894;DHT22;6006;49.696;8.662;2022-12-20T06:00:54;2.60;99.90
11894;DHT22;6006;49.696;8.662;2022-12-20T06:03:23;2.60;99.90
11894;DHT22;6006;49.696;8.662;2022-12-20T06:05:50;2.70;99.90
11894;DHT22;6006;49.696;8.662;2022-12-20T06:08:18;2.70;99.90
11894;DHT22;6006;49.696;8.662;2022-12-20T06:10:47;2.80;99.90
11894;DHT22;6006;49.696;8.662;2022-12-20T06:13:16;2.80;99.90
11894;DHT22;6006;49.696;8.662;2022-12-20T06:15:44;2.80;99.90
11894;DHT22;6006;49.696;8.662;2022-12-20T06:18:11;2.80;99.90
11894;DHT22;6006;49.696;8.662;2022-12-20T06:20:38;2.70;99.90
11894;DHT22;6006;49.696;8.662;2022-12-20T06:23:05;2.80;99.90
11894;DHT22;6006;49.696;8.662;2022-12-20T06:25:35;2.90;99.90
11894;DHT22;6006;49.696;8.662;2022-12-20T06:28:05;3.00;99.90
11894;DHT22;6006;49.696;8.662;2022-12-20T06:30:32;3.10;99.90
11894;DHT22;6006;49.696;8.662;2022-12-20T06:33:01;3.20;99.90
11894;DHT22;6006;49.696;8.662;2022-12-20T06:35:28;3.20;99.90
11894;DHT22;6006;49.696;8.662;2022-12-20T06:37:55;3.20;99.90
11894;DHT22;6006;49.696;8.662;2022-12-20T06:40:22;3.20;99.90
11894;DHT22;6006;49.696;8.662;2022-12-20T06:42:51;3.20;99.90
11894;DHT22;6006;49.696;8.662;2022-12-20T06:45:18;3.20;99.90
11894;DHT22;6006;49.696;8.662;2022-12-20T06:47:45;3.20;99.90
11894;DHT22;6006;49.696;8.662;2022-12-20T06:50:12;3.20;99.90
11894;DHT22;6006;49.696;8.662;2022-12-20T06:52:39;3.20;99.90
11894;DHT22;6006;49.696;8.662;2022-12-20T06:55:06;3.20;99.90
11894;DHT22;6006;49.696;8.662;2022-12-20T06:57:33;3.20;99.90
11894;DHT22;6006;49.696;8.662;2022-12-20T07:00:02;3.20;99.90
11894;DHT22;6006;49.696;8.662;2022-12-20T07:02:29;3.30;99.90
11894;DHT22;6006;49.696;8.662;2022-12-20T07:04:56;3.30;99.90
11894;DHT22;6006;49.696;8.662;2022-12-20T07:07:23;3.30;99.90
11894;DHT22;6006;49.696;8.662;2022-12-20T07:09:50;3.40;99.90
11894;DHT22;6006;49.696;8.662;2022-12-20T07:12:18;3.40;99.90
11894;DHT22;6006;49.696;8.662;2022-12-20T07:14:45;3.30;99.90
11894;DHT22;6006;49.696;8.662;2022-12-20T07:17:13;3.30;99.90
11894;DHT22;6006;49.696;8.662;2022-12-20T07:19:41;3.50;99.90
11894;DHT22;6006;49.696;8.662;2022-12-20T07:22:08;3.50;99.90
11894;DHT22;6006;49.696;8.662;2022-12-20T07:24:35;3.70;99.90
11894;DHT22;6006;49.696;8.662;2022-12-20T07:27:02;3.80;99.90
11894;DHT22;6006;49.696;8.662;2022-12-20T07:29:29;3.70;99.90
11894;DHT22;6006;49.696;8.662;2022-12-20T07:31:56;3.70;99.90
11894;DHT22;6006;49.696;8.662;2022-12-20T07:34:24;3.60;99.90
11894;DHT22;6006;49.696;8.662;2022-12-20T07:36:51;3.70;99.90
11894;DHT22;6006;49.696;8.662;2022-12-20T07:39:18;3.70;99.90
11894;DHT22;6006;49.696;8.662;2022-12-20T07:41:45;3.70;99.90
11894;DHT22;6006;49.696;8.662;2022-12-20T07:44:12;3.80;99.90
11894;DHT22;6006;49.696;8.662;2022-12-20T07:46:39;3.80;99.90
11894;DHT22;6006;49.696;8.662;2022-12-20T07:49:05;3.80;99.90
11894;DHT22;6006;49.696;8.662;2022-12-20T07:51:36;3.90;99.90
11894;DHT22;6006;49.696;8.662;2022-12-20T07:54:12;3.90;99.90
11894;DHT22;6006;49.696;8.662;2022-12-20T07:56:42;3.90;99.90
11894;DHT22;6006;49.696;8.662;2022-12-20T07:59:12;3.90;99.90
11894;DHT22;6006;49.696;8.662;2022-12-20T08:01:40;3.90;99.90
11894;DHT22;6006;49.696;8.662;2022-12-20T08:04:13;3.90;99.90
11894;DHT22;6006;49.696;8.662;2022-12-20T08:06:41;4.00;99.90
11894;DHT22;6006;49.696;8.662;2022-12-20T08:09:10;4.10;99.90
11894;DHT22;6006;49.696;8.662;2022-12-20T08:11:40;4.10;99.90
11894;DHT22;6006;49.696;8.662;2022-12-20T08:14:08;4.10;99.90
11894;DHT22;6006;49.696;8.662;2022-12-20T08:16:36;4.20;99.90
11894;DHT22;6006;49.696;8.662;2022-12-20T08:19:04;4.20;99.90
11894;DHT22;6006;49.696;8.662;2022-12-20T08:21:31;4.20;99.90
11894;DHT22;6006;49.696;8.662;2022-12-20T08:23:59;4.10;99.90
11894;DHT22;6006;49.696;8.662;2022-12-20T08:26:26;4.20;99.90
11894;DHT22;6006;49.696;8.662;2022-12-20T08:28:54;4.30;99.90
11894;DHT22;6006;49.696;8.662;2022-12-20T08:31:21;4.40;99.90
11894;DHT22;6006;49.696;8.662;2022-12-20T08:33:48;4.40;99.90
11894;DHT22;6006;49.696;8.662;2022-12-20T08:36:16;4.50;99.90
11894;DHT22;6006;49.696;8.662;2022-12-20T08:38:42;4.60;99.90
11894;DHT22;6006;49.696;8.662;2022-12-20T08:41:12;4.60;99.90
11894;DHT22;6006;49.696;8.662;2022-12-20T08:43:40;4.70;99.90
11894;DHT22;6006;49.696;8.662;2022-12-20T08:46:09;4.90;99.90
11894;DHT22;6006;49.696;8.662;2022-12-20T08:48:36;5.20;99.90
11894;DHT22;6006;49.696;8.662;2022-12-20T08:51:07;5.30;99.90
11894;DHT22;6006;49.696;8.662;2022-12-20T08:53:35;5.60;99.90
11894;DHT22;6006;49.696;8.662;2022-12-20T08:56:04;5.90;99.90
11894;DHT22;6006;49.696;8.662;2022-12-20T08:58:33;6.10;99.90
11894;DHT22;6006;49.696;8.662;2022-12-20T09:01:01;6.10;99.90
11894;DHT22;6006;49.696;8.662;2022-12-20T09:03:29;6.20;99.90
11894;DHT22;6006;49.696;8.662;2022-12-20T09:05:57;6.10;99.90
11894;DHT22;6006;49.696;8.662;2022-12-20T09:08:24;6.10;99.90
11894;DHT22;6006;49.696;8.662;2022-12-20T09:10:52;6.20;99.90
11894;DHT22;6006;49.696;8.662;2022-12-20T09:13:19;6.30;99.90
11894;DHT22;6006;49.696;8.662;2022-12-20T09:15:47;6.30;99.90
11894;DHT22;6006;49.696;8.662;2022-12-20T09:18:14;6.40;99.90
11894;DHT22;6006;49.696;8.662;2022-12-20T09:20:42;6.40;99.90
11894;DHT22;6006;49.696;8.662;2022-12-20T09:23:10;6.60;99.90
11894;DHT22;6006;49.696;8.662;2022-12-20T09:25:37;6.50;99.90
11894;DHT22;6006;49.696;8.662;2022-12-20T09:28:04;6.60;99.90
11894;DHT22;6006;49.696;8.662;2022-12-20T09:30:31;6.70;99.90
11894;DHT22;6006;49.696;8.662;2022-12-20T09:33:00;6.90;99.90
11894;DHT22;6006;49.696;8.662;2022-12-20T09:35:27;7.10;99.90
11894;DHT22;6006;49.696;8.662;2022-12-20T09:37:53;7.10;99.90
11894;DHT22;6006;49.696;8.662;2022-12-20T09:40:22;7.30;99.90
11894;DHT22;6006;49.696;8.662;2022-12-20T09:42:50;7.50;99.90
11894;DHT22;6006;49.696;8.662;2022-12-20T09:45:23;7.80;99.90
11894;DHT22;6006;49.696;8.662;2022-12-20T09:47:50;8.10;99.90
11894;DHT22;6006;49.696;8.662;2022-12-20T09:50:24;8.30;99.90
11894;DHT22;6006;49.696;8.662;2022-12-20T09:53:04;8.50;99.90
11894;DHT22;6006;49.696;8.662;2022-12-20T09:55:41;8.90;99.90
11894;DHT22;6006;49.696;8.662;2022-12-20T09:58:30;9.20;99.90
11894;DHT22;6006;49.696;8.662;2022-12-20T10:01:10;9.50;99.90
11894;DHT22;6006;49.696;8.662;2022-12-20T10:03:40;9.80;27.10
11894;DHT22;6006;49.696;8.662;2022-12-20T10:06:15;10.60;1.00
11894;DHT22;6006;49.696;8.662;2022-12-20T10:08:50;10.80;99.90
11894;DHT22;6006;49.696;8.662;2022-12-20T10:11:39;10.90;99.90
11894;DHT22;6006;49.696;8.662;2022-12-20T10:14:22;10.80;1.00
11894;DHT22;6006;49.696;8.662;2022-12-20T10:16:55;10.70;1.00
11894;DHT22;6006;49.696;8.662;2022-12-20T10:19:38;10.90;99.90
11894;DHT22;6006;49.696;8.662;2022-12-20T10:22:16;10.80;99.90
11894;DHT22;6006;49.696;8.662;2022-12-20T10:24:52;10.90;99.90
11894;DHT22;6006;49.696;8.662;2022-12-20T10:27:20;10.90;1.00
11894;DHT22;6006;49.696;8.662;2022-12-20T10:29:48;11.00;99.90
11894;DHT22;6006;49.696;8.662;2022-12-20T10:32:18;11.10;99.90
11894;DHT22;6006;49.696;8.662;2022-12-20T10:34:51;11.00;99.90
11894;DHT22;6006;49.696;8.662;2022-12-20T10:37:22;11.20;1.00
11894;DHT22;6006;49.696;8.662;2022-12-20T10:39:51;11.00;99.90
11894;DHT22;6006;49.696;8.662;2022-12-20T10:42:35;11.00;1.00
11894;DHT22;6006;49.696;8.662;2022-12-20T10:45:03;11.00;99.90
11894;DHT22;6006;49.696;8.662;2022-12-20T10:47:39;10.90;99.90
11894;DHT22;6006;49.696;8.662;2022-12-20T10:50:11;10.80;99.90
11894;DHT22;6006;49.696;8.662;2022-12-20T10:52:41;10.70;99.90
11894;DHT22;6006;49.696;8.662;2022-12-20T10:55:31;10.70;99.90
11894;DHT22;6006;49.696;8.662;2022-12-20T10:58:04;10.80;99.90
11894;DHT22;6006;49.696;8.662;2022-12-20T11:00:32;10.70;99.90
11894;DHT22;6006;49.696;8.662;2022-12-20T11:03:10;10.70;99.90
11894;DHT22;6006;49.696;8.662;2022-12-20T11:05:37;10.60;99.90
11894;DHT22;6006;49.696;8.662;2022-12-20T11:08:14;10.70;99.90
11894;DHT22;6006;49.696;8.662;2022-12-20T11:10:41;10.80;99.90
11894;DHT22;6006;49.696;8.662;2022-12-20T11:13:20;11.00;1.00
11894;DHT22;6006;49.696;8.662;2022-12-20T11:15:49;11.10;1.00
11894;DHT22;6006;49.696;8.662;2022-12-20T11:18:25;11.10;1.00
11894;DHT22;6006;49.696;8.662;2022-12-20T11:20:59;11.20;99.90
11894;DHT22;6006;49.696;8.662;2022-12-20T11:23:36;11.20;99.90
11894;DHT22;6006;49.696;8.662;2022-12-20T11:26:18;11.30;20.10
11894;DHT22;6006;49.696;8.662;2022-12-20T11:29:00;11.20;95.50
11894;DHT22;6006;49.696;8.662;2022-12-20T11:31:38;11.10;99.90
11894;DHT22;6006;49.696;8.662;2022-12-20T11:34:15;11.10;1.00
11894;DHT22;6006;49.696;8.662;2022-12-20T11:37:05;11.10;26.40
11894;DHT22;6006;49.696;8.662;2022-12-20T11:39:48;10.90;99.90
11894;DHT22;6006;49.696;8.662;2022-12-20T11:42:25;10.90;99.90
11894;DHT22;6006;49.696;8.662;2022-12-20T11:45:01;11.00;1.00
11894;DHT22;6006;49.696;8.662;2022-12-20T11:47:53;11.00;99.90
11894;DHT22;6006;49.696;8.662;2022-12-20T11:50:41;10.90;1.00
11894;DHT22;6006;49.696;8.662;2022-12-20T11:53:15;11.10;99.90
11894;DHT22;6006;49.696;8.662;2022-12-20T11:55:49;11.20;1.00
11894;DHT22;6006;49.696;8.662;2022-12-20T11:58:20;11.20;99.90
11894;DHT22;6006;49.696;8.662;2022-12-20T12:00:53;11.30;1.00
11894;DHT22;6006;49.696;8.662;2022-12-20T12:03:27;11.30;1.00
11894;DHT22;6006;49.696;8.662;2022-12-20T12:06:03;11.40;1.00
11894;DHT22;6006;49.696;8.662;2022-12-20T12:08:38;11.40;1.00
11894;DHT22;6006;49.696;8.662;2022-12-20T12:11:11;11.30;1.00
11894;DHT22;6006;49.696;8.662;2022-12-20T12:13:41;11.30;1.00
11894;DHT22;6006;49.696;8.662;2022-12-20T12:16:12;11.20;1.00
11894;DHT22;6006;49.696;8.662;2022-12-20T12:18:42;11.30;1.00
11894;DHT22;6006;49.696;8.662;2022-12-20T12:21:15;11.20;1.00
11894;DHT22;6006;49.696;8.662;2022-12-20T12:23:51;11.20;1.00
11894;DHT22;6006;49.696;8.662;2022-12-20T12:26:26;11.20;1.00
11894;DHT22;6006;49.696;8.662;2022-12-20T12:28:57;11.20;1.00
11894;DHT22;6006;49.696;8.662;2022-12-20T12:31:29;11.10;1.00
11894;DHT22;6006;49.696;8.662;2022-12-20T12:34:10;11.10;1.00
11894;DHT22;6006;49.696;8.662;2022-12-20T12:37:12;11.00;62.50
11894;DHT22;6006;49.696;8.662;2022-12-20T12:39:57;10.90;1.00
11894;DHT22;6006;49.696;8.662;2022-12-20T12:45:26;11.00;1.00
11894;DHT22;6006;49.696;8.662;2022-12-20T12:47:55;11.00;99.90
11894;DHT22;6006;49.696;8.662;2022-12-20T12:50:27;11.00;1.00
11894;DHT22;6006;49.696;8.662;2022-12-20T12:52:57;10.90;99.90
11894;DHT22;6006;49.696;8.662;2022-12-20T12:55:49;11.10;99.90
11894;DHT22;6006;49.696;8.662;2022-12-20T12:58:40;11.10;1.00
11894;DHT22;6006;49.696;8.662;2022-12-20T13:01:09;11.00;1.00
11894;DHT22;6006;49.696;8.662;2022-12-20T13:03:43;10.90;99.90
11894;DHT22;6006;49.696;8.662;2022-12-20T13:06:42;10.90;1.00
11894;DHT22;6006;49.696;8.662;2022-12-20T13:09:18;10.90;1.00
11894;DHT22;6006;49.696;8.662;2022-12-20T13:11:45;10.90;99.90
11894;DHT22;6006;49.696;8.662;2022-12-20T13:14:48;10.90;63.20
11894;DHT22;6006;49.696;8.662;2022-12-20T13:17:47;11.10;1.00
11894;DHT22;6006;49.696;8.662;2022-12-20T13:20:18;11.10;1.00
11894;DHT22;6006;49.696;8.662;2022-12-20T13:23:13;11.10;1.00
11894;DHT22;6006;49.696;8.662;2022-12-20T13:25:43;11.10;1.00
11894;DHT22;6006;49.696;8.662;2022-12-20T13:28:42;11.00;99.90
11894;DHT22;6006;49.696;8.662;2022-12-20T13:31:32;11.00;1.00
11894;DHT22;6006;49.696;8.662;2022-12-20T13:34:02;11.10;99.90
11894;DHT22;6006;49.696;8.662;2022-12-20T13:36:32;11.10;1.00
11894;DHT22;6006;49.696;8.662;2022-12-20T13:39:01;11.10;1.00
11894;DHT22;6006;49.696;8.662;2022-12-20T13:41:38;11.00;1.00
11894;DHT22;6006;49.696;8.662;2022-12-20T13:47:28;11.10;1.00
11894;DHT22;6006;49.696;8.662;2022-12-20T13:50:00;10.80;1.00
11894;DHT22;6006;49.696;8.662;2022-12-20T13:52:29;10.70;1.00
11894;DHT22;6006;49.696;8.662;2022-12-20T13:54:59;10.60;99.90
11894;DHT22;6006;49.696;8.662;2022-12-20T13:57:29;10.50;99.90
11894;DHT22;6006;49.696;8.662;2022-12-20T13:59:59;10.30;99.90
11894;DHT22;6006;49.696;8.662;2022-12-20T14:02:32;10.20;1.00
11894;DHT22;6006;49.696;8.662;2022-12-20T14:05:03;10.20;1.00
11894;DHT22;6006;49.696;8.662;2022-12-20T14:07:33;10.10;1.00
11894;DHT22;6006;49.696;8.662;2022-12-20T14:10:02;10.00;99.90
11894;DHT22;6006;49.696;8.662;2022-12-20T14:12:29;10.00;99.90
11894;DHT22;6006;49.696;8.662;2022-12-20T14:14:56;10.10;1.00
11894;DHT22;6006;49.696;8.662;2022-12-20T14:17:25;10.00;1.00
11894;DHT22;6006;49.696;8.662;2022-12-20T14:20:06;9.90;1.00
11894;DHT22;6006;49.696;8.662;2022-12-20T14:22:41;9.90;99.90
11894;DHT22;6006;49.696;8.662;2022-12-20T14:25:15;9.70;1.00
11894;DHT22;6006;49.696;8.662;2022-12-20T14:27:43;9.70;99.90
11894;DHT22;6006;49.696;8.662;2022-12-20T14:30:29;9.60;1.00
11894;DHT22;6006;49.696;8.662;2022-12-20T14:32:57;9.50;1.00
11894;DHT22;6006;49.696;8.662;2022-12-20T14:35:26;9.50;1.00
11894;DHT22;6006;49.696;8.662;2022-12-20T14:37:58;10.20;2.00
11894;DHT22;6006;49.696;8.662;2022-12-20T14:40:27;10.20;1.00
11894;DHT22;6006;49.696;8.662;2022-12-20T14:42:55;10.20;1.00
11894;DHT22;6006;49.696;8.662;2022-12-20T14:45:24;10.00;99.90
11894;DHT22;6006;49.696;8.662;2022-12-20T14:47:57;9.90;99.90
11894;DHT22;6006;49.696;8.662;2022-12-20T14:50:29;10.00;1.00
11894;DHT22;6006;49.696;8.662;2022-12-20T14:52:57;9.80;1.00
11894;DHT22;6006;49.696;8.662;2022-12-20T14:55:31;9.60;1.00
11894;DHT22;6006;49.696;8.662;2022-12-20T14:57:59;9.40;99.90
11894;DHT22;6006;49.696;8.662;2022-12-20T15:00:29;9.40;1.00
11894;DHT22;6006;49.696;8.662;2022-12-20T15:03:00;9.40;1.00
11894;DHT22;6006;49.696;8.662;2022-12-20T15:05:45;9.40;99.90
11894;DHT22;6006;49.696;8.662;2022-12-20T15:08:14;9.30;99.90
11894;DHT22;6006;49.696;8.662;2022-12-20T15:10:46;9.20;99.90
11894;DHT22;6006;49.696;8.662;2022-12-20T15:13:16;8.90;1.00
11894;DHT22;6006;49.696;8.662;2022-12-20T15:15:43;8.70;99.90
11894;DHT22;6006;49.696;8.662;2022-12-20T15:18:14;8.60;99.90
11894;DHT22;6006;49.696;8.662;2022-12-20T15:20:44;8.40;99.90
11894;DHT22;6006;49.696;8.662;2022-12-20T15:23:14;8.30;1.00
11894;DHT22;6006;49.696;8.662;2022-12-20T15:25:42;8.30;1.00
11894;DHT22;6006;49.696;8.662;2022-12-20T15:28:15;8.20;1.00
11894;DHT22;6006;49.696;8.662;2022-12-20T15:30:44;8.10;1.00
11894;DHT22;6006;49.696;8.662;2022-12-20T15:33:15;8.00;1.00
11894;DHT22;6006;49.696;8.662;2022-12-20T15:35:43;8.00;1.00
11894;DHT22;6006;49.696;8.662;2022-12-20T15:38:13;7.90;1.00
11894;DHT22;6006;49.696;8.662;2022-12-20T15:40:42;7.80;1.00
11894;DHT22;6006;49.696;8.662;2022-12-20T15:43:12;7.80;1.00
11894;DHT22;6006;49.696;8.662;2022-12-20T15:45:40;7.70;1.00
11894;DHT22;6006;49.696;8.662;2022-12-20T15:48:15;7.70;57.30
11894;DHT22;6006;49.696;8.662;2022-12-20T15:50:51;7.60;1.00
11894;DHT22;6006;49.696;8.662;2022-12-20T15:53:21;7.50;7.20
11894;DHT22;6006;49.696;8.662;2022-12-20T15:55:52;7.50;1.00
11894;DHT22;6006;49.696;8.662;2022-12-20T15:58:21;7.50;1.00
11894;DHT22;6006;49.696;8.662;2022-12-20T16:00:48;7.40;1.00
11894;DHT22;6006;49.696;8.662;2022-12-20T16:03:17;7.30;69.00
11894;DHT22;6006;49.696;8.662;2022-12-20T16:05:46;7.30;78.30
11894;DHT22;6006;49.696;8.662;2022-12-20T16:08:14;7.30;99.90
11894;DHT22;6006;49.696;8.662;2022-12-20T16:10:43;7.30;99.90
11894;DHT22;6006;49.696;8.662;2022-12-20T16:13:13;7.30;99.90
11894;DHT22;6006;49.696;8.662;2022-12-20T16:15:41;7.10;99.90
11894;DHT22;6006;49.696;8.662;2022-12-20T16:18:08;7.10;99.90
11894;DHT22;6006;49.696;8.662;2022-12-20T16:20:35;7.10;99.90
11894;DHT22;6006;49.696;8.662;2022-12-20T16:23:03;7.00;99.90
11894;DHT22;6006;49.696;8.662;2022-12-20T16:25:35;7.00;99.90
11894;DHT22;6006;49.696;8.662;2022-12-20T16:28:02;7.00;99.90
11894;DHT22;6006;49.696;8.662;2022-12-20T16:30:29;7.10;99.90
11894;DHT22;6006;49.696;8.662;2022-12-20T16:32:56;7.00;99.90